Hillman, Ohio
Current Conditions -  °F | °C
As of 8:35 PM on Tuesday 21 Oct 2014 (Local Time) from KFGX Reporting Station
Overcast Overcast  
Wind Chill: 44°   Ceiling: 2200
Heat Index: 48°   Visibility: 10mi
Dew Point: 44°   Wind: 10mph
Humidity: 85%   Direction: 350°N
Pressure: 30.13"   Gusts: 20mph
Location:  38.8698°N, 83.9081°W
Report Text: KFGX 220035Z AUTO 35009G17KT 10SM SCT017 BKN022 OVC030 09/07 A3013 RMK AO2 T00900066
Loading
Personal Weather Stations






























Interactive Weather Map
Tropical Storm Tracking
New forecast layout! Learn more

10-Day Weather Forecast

Advertisements
Track Severe Weather on mobile